Time;durP1;ratioP1;P1;durP2;ratioP2;P2;SDS_P1;SDS_P2;PMS_P1;PMS_P2;Temp;Humidity;BMP_temperature;BMP_pressure;BME280_temperature;BME280_humidity;BME280_pressure;Samples;Min_cycle;Max_cycle;Signal;HPM_P1;HPM_P2
2021/05/02 00:00:28;;;;;;;5.40;3.88;;;10.60;54.70;;;;;;4936524;29;20173;-81
2021/05/02 00:02:54;;;;;;;5.10;4.60;;;10.50;55.20;;;;;;4926536;29;20188;-82
2021/05/02 00:05:23;;;;;;;4.88;4.47;;;10.50;55.00;;;;;;4923066;29;20209;-81
2021/05/02 00:07:48;;;;;;;5.18;4.68;;;10.40;55.00;;;;;;4943444;28;20216;-82
2021/05/02 00:10:15;;;;;;;6.50;4.90;;;10.40;55.30;;;;;;4935963;29;20196;-82
2021/05/02 00:12:42;;;;;;;6.60;4.75;;;10.30;55.40;;;;;;4935785;29;20588;-82
2021/05/02 00:15:11;;;;;;;6.57;5.97;;;10.30;55.80;;;;;;4918935;29;20181;-82
2021/05/02 00:17:39;;;;;;;6.50;5.90;;;10.30;55.80;;;;;;4935640;29;20209;-82
2021/05/02 00:20:07;;;;;;;6.05;5.55;;;10.20;55.90;;;;;;4918624;29;20177;-82
2021/05/02 00:22:34;;;;;;;5.55;5.05;;;10.20;56.10;;;;;;4935611;29;20645;-82
2021/05/02 00:25:03;;;;;;;6.43;5.88;;;10.10;56.10;;;;;;4935579;29;20212;-82
2021/05/02 00:27:29;;;;;;;4.72;4.32;;;10.10;56.40;;;;;;4935243;29;20185;-82
2021/05/02 00:29:55;;;;;;;6.82;6.05;;;10.00;56.40;;;;;;4936654;29;20316;-82
2021/05/02 00:32:22;;;;;;;5.63;5.10;;;10.00;56.40;;;;;;4937725;29;20260;-82
2021/05/02 00:34:49;;;;;;;6.57;5.70;;;10.00;56.90;;;;;;4920901;29;20581;-81
2021/05/02 00:37:16;;;;;;;8.40;6.30;;;9.90;57.70;;;;;;4936643;29;20248;-81
2021/05/02 00:39:43;;;;;;;7.28;5.30;;;9.90;58.00;;;;;;4936422;29;20177;-81
2021/05/02 00:42:17;;;;;;;5.28;4.78;;;9.80;58.00;;;;;;4940386;29;20169;-81
2021/05/02 00:44:51;;;;;;;5.32;4.80;;;9.80;58.10;;;;;;4919848;29;20284;-81
2021/05/02 00:47:21;;;;;;;6.28;5.68;;;9.80;58.70;;;;;;4918860;29;20243;-81
2021/05/02 00:49:54;;;;;;;5.43;4.93;;;9.70;58.50;;;;;;4918914;29;20256;-81
2021/05/02 00:52:56;;;;;;;6.90;5.55;;;9.60;58.40;;;;;;4935970;29;20183;-81
2021/05/02 00:55:52;;;;;;;6.05;5.45;;;9.60;59.20;;;;;;4935131;29;20236;-82
2021/05/02 00:58:31;;;;;;;6.63;5.90;;;9.60;59.00;;;;;;4931607;29;20212;-82
2021/05/02 01:01:00;;;;;;;5.10;4.60;;;9.50;59.30;;;;;;4918110;29;20228;-81
2021/05/02 01:03:32;;;;;;;6.97;6.30;;;9.40;59.30;;;;;;4918078;29;20205;-82
2021/05/02 01:06:05;;;;;;;6.65;5.70;;;9.40;59.70;;;;;;4933455;29;20518;-82
2021/05/02 01:08:34;;;;;;;7.03;6.32;;;9.40;60.00;;;;;;4934576;29;20204;-82
2021/05/02 01:11:04;;;;;;;6.88;6.18;;;9.30;60.50;;;;;;4918024;29;20181;-82
2021/05/02 01:13:35;;;;;;;7.63;6.82;;;9.30;61.10;;;;;;4902258;29;20705;-81
2021/05/02 01:16:04;;;;;;;5.68;5.18;;;9.20;61.40;;;;;;4935091;29;20533;-81
2021/05/02 01:18:30;;;;;;;7.47;6.78;;;9.20;61.70;;;;;;4939064;29;20208;-82
2021/05/02 01:20:57;;;;;;;6.13;5.63;;;9.20;62.00;;;;;;4934953;29;20169;-82
2021/05/02 01:23:24;;;;;;;8.38;7.65;;;9.10;62.60;;;;;;4934699;29;20172;-81
2021/05/02 01:25:53;;;;;;;7.25;6.65;;;9.10;63.10;;;;;;4917760;29;20173;-82
2021/05/02 01:28:20;;;;;;;7.53;6.80;;;9.10;63.20;;;;;;4917152;29;20243;-82
2021/05/02 01:30:46;;;;;;;7.22;6.53;;;9.10;63.40;;;;;;4934536;29;20323;-81
2021/05/02 01:33:12;;;;;;;8.20;7.10;;;9.00;63.70;;;;;;4934745;29;20169;-82
2021/05/02 01:35:38;;;;;;;9.20;8.30;;;9.00;64.40;;;;;;4917527;29;20169;-82
2021/05/02 01:38:04;;;;;;;9.00;7.70;;;8.90;64.80;;;;;;4917273;29;20554;-81
2021/05/02 01:40:30;;;;;;;8.93;7.85;;;8.90;65.90;;;;;;4917783;29;20664;-81
2021/05/02 01:42:56;;;;;;;8.87;7.97;;;8.90;65.80;;;;;;4917884;29;20268;-81
2021/05/02 01:45:22;;;;;;;10.33;9.33;;;8.90;66.10;;;;;;4903465;29;20200;-81
2021/05/02 01:47:58;;;;;;;8.37;7.50;;;8.80;66.80;;;;;;4936260;29;20220;-81
2021/05/02 01:50:26;;;;;;;9.40;8.48;;;8.80;68.00;;;;;;4918295;29;20580;-82
2021/05/02 01:52:53;;;;;;;8.80;8.00;;;8.80;67.80;;;;;;4902688;29;20650;-82
2021/05/02 01:55:20;;;;;;;9.65;8.20;;;8.70;68.30;;;;;;4935900;29;20177;-82
2021/05/02 01:57:48;;;;;;;9.05;8.25;;;8.70;68.90;;;;;;4917904;29;20203;-82
2021/05/02 02:00:37;;;;;;;10.25;8.05;;;8.70;69.10;;;;;;4918720;29;20169;-82
2021/05/02 02:03:04;;;;;;;8.02;7.22;;;8.70;70.60;;;;;;4946142;29;20209;-82
2021/05/02 02:05:30;;;;;;;8.38;7.60;;;8.70;69.90;;;;;;4936888;29;20212;-81
2021/05/02 02:08:00;;;;;;;10.10;9.05;;;8.70;69.90;;;;;;4927658;29;20232;-81
2021/05/02 02:10:27;;;;;;;10.48;8.77;;;8.70;70.50;;;;;;4918638;29;20224;-81
2021/05/02 02:12:53;;;;;;;12.63;8.85;;;8.70;70.80;;;;;;4937341;29;20165;-81
2021/05/02 02:15:20;;;;;;;10.87;8.53;;;8.60;71.30;;;;;;4921805;29;20181;-81
2021/05/02 02:17:46;;;;;;;8.15;7.43;;;8.60;71.80;;;;;;4921196;29;20213;-81
2021/05/02 02:20:13;;;;;;;9.90;8.90;;;8.70;72.00;;;;;;4924347;29;20173;-81
2021/05/02 02:22:41;;;;;;;8.40;7.70;;;8.70;72.60;;;;;;4903273;29;20946;-82
2021/05/02 02:25:09;;;;;;;9.13;7.60;;;8.60;73.30;;;;;;4936132;29;20201;-82
2021/05/02 02:27:35;;;;;;;10.90;8.57;;;8.60;73.60;;;;;;4935861;29;20270;-82
2021/05/02 02:30:09;;;;;;;8.80;8.00;;;8.70;74.30;;;;;;4919201;29;20173;-82
2021/05/02 02:32:44;;;;;;;9.27;7.97;;;8.70;76.20;;;;;;4923231;29;20572;-82
2021/05/02 02:35:13;;;;;;;9.07;8.18;;;8.80;76.10;;;;;;4902266;29;20275;-82
2021/05/02 02:37:44;;;;;;;10.52;8.32;;;8.80;76.40;;;;;;4935861;29;20249;-82
2021/05/02 02:40:15;;;;;;;8.85;7.95;;;8.90;76.70;;;;;;4940449;29;20176;-82
2021/05/02 02:42:45;;;;;;;9.55;8.65;;;8.90;76.90;;;;;;4938913;29;20170;-81
2021/05/02 02:45:12;;;;;;;10.85;8.70;;;9.00;77.40;;;;;;4917402;29;20554;-82
2021/05/02 02:47:56;;;;;;;9.45;8.48;;;9.00;77.70;;;;;;4933316;29;20232;-82
2021/05/02 02:50:23;;;;;;;9.45;8.48;;;9.00;79.10;;;;;;4935361;29;20169;-82
2021/05/02 02:52:55;;;;;;;8.52;7.63;;;9.10;78.40;;;;;;4937106;29;20196;-82
2021/05/02 02:55:24;;;;;;;10.32;9.38;;;9.10;78.90;;;;;;4937118;29;20189;-82
2021/05/02 02:57:52;;;;;;;8.82;7.93;;;9.10;79.00;;;;;;4936608;29;20201;-82
2021/05/02 03:00:20;;;;;;;10.23;8.35;;;9.10;79.70;;;;;;4936992;29;20169;-82
2021/05/02 03:02:50;;;;;;;9.00;8.20;;;9.10;80.00;;;;;;4936988;29;20169;-82
2021/05/02 03:05:19;;;;;;;10.05;9.13;;;9.20;80.50;;;;;;4937082;29;20212;-82
2021/05/02 03:07:47;;;;;;;10.18;9.18;;;9.20;80.60;;;;;;4936790;29;20205;-82
2021/05/02 03:10:14;;;;;;;9.40;8.55;;;9.20;81.40;;;;;;4942053;29;20173;-82
2021/05/02 03:12:41;;;;;;;9.77;8.88;;;9.20;81.50;;;;;;4937168;29;20177;-82
2021/05/02 03:15:08;;;;;;;8.82;8.02;;;9.20;82.30;;;;;;4937094;29;20196;-82
2021/05/02 03:17:35;;;;;;;9.80;8.90;;;9.20;82.60;;;;;;4926124;29;20280;-82
2021/05/02 03:20:04;;;;;;;13.07;9.32;;;9.30;83.10;;;;;;4944481;29;20181;-82
2021/05/02 03:22:46;;;;;;;10.40;8.95;;;9.30;84.40;;;;;;4919758;29;20598;-82
2021/05/02 03:25:13;;;;;;;10.88;8.38;;;9.30;84.50;;;;;;4919770;29;20211;-82
2021/05/02 03:28:00;;;;;;;10.43;9.43;;;9.30;84.00;;;;;;4919327;29;20201;-81
2021/05/02 03:30:27;;;;;;;10.32;8.40;;;9.40;85.10;;;;;;4936703;29;20169;-81
2021/05/02 03:32:55;;;;;;;10.70;9.60;;;9.40;84.60;;;;;;4919569;29;20205;-82
2021/05/02 03:35:30;;;;;;;9.93;8.95;;;9.40;85.30;;;;;;4941328;29;20173;-81
2021/05/02 03:38:21;;;;;;;12.23;9.82;;;9.40;86.30;;;;;;4942376;29;20192;-81
2021/05/02 03:40:48;;;;;;;8.35;7.55;;;9.40;87.00;;;;;;4891152;29;20189;-81
2021/05/02 03:43:13;;;;;;;10.13;8.27;;;9.50;86.20;;;;;;4922695;29;20196;-82
2021/05/02 03:45:39;;;;;;;11.40;10.17;;;9.50;86.40;;;;;;4892596;29;20308;-82
2021/05/02 03:48:05;;;;;;;9.73;8.70;;;9.50;86.60;;;;;;4936162;29;20208;-82
2021/05/02 03:50:31;;;;;;;11.47;9.57;;;9.50;87.00;;;;;;4919357;29;20177;-82
2021/05/02 03:52:57;;;;;;;12.15;10.77;;;9.50;87.20;;;;;;4936249;29;20573;-82
2021/05/02 03:55:23;;;;;;;10.27;9.27;;;9.50;87.60;;;;;;4919008;29;20180;-82
2021/05/02 03:57:48;;;;;;;11.17;10.10;;;9.60;88.00;;;;;;4935776;29;20189;-82
2021/05/02 04:00:15;;;;;;;10.83;9.13;;;9.60;88.80;;;;;;4935986;29;20205;-82
2021/05/02 04:02:40;;;;;;;10.95;9.95;;;9.60;88.70;;;;;;4935803;29;20561;-82
2021/05/02 04:05:07;;;;;;;15.50;10.00;;;9.60;89.00;;;;;;4936143;29;20639;-82
2021/05/02 04:07:33;;;;;;;10.57;9.55;;;9.60;89.20;;;;;;4935668;29;20189;-82
2021/05/02 04:09:58;;;;;;;10.13;9.13;;;9.60;89.70;;;;;;4935847;29;20228;-82
2021/05/02 04:12:24;;;;;;;13.13;9.60;;;9.60;89.80;;;;;;4903223;29;20589;-82
2021/05/02 04:14:50;;;;;;;12.00;9.40;;;9.60;89.90;;;;;;4935729;29;20205;-82
2021/05/02 04:17:16;;;;;;;11.73;10.63;;;9.60;90.00;;;;;;4918437;29;20197;-82
2021/05/02 04:19:44;;;;;;;12.13;11.00;;;9.70;90.40;;;;;;4936223;29;20176;-82
2021/05/02 04:22:19;;;;;;;13.90;10.57;;;9.70;90.60;;;;;;4937752;29;20300;-82
2021/05/02 04:24:49;;;;;;;13.32;10.38;;;9.70;90.60;;;;;;4922475;29;20623;-81
2021/05/02 04:27:15;;;;;;;10.95;9.70;;;9.70;91.10;;;;;;4935540;29;20201;-82
2021/05/02 04:29:41;;;;;;;12.13;9.00;;;9.70;91.00;;;;;;4935441;29;20181;-81
2021/05/02 04:32:07;;;;;;;10.07;9.20;;;9.70;91.10;;;;;;4935404;29;20180;-82
2021/05/02 04:34:33;;;;;;;11.20;9.83;;;9.70;91.00;;;;;;4887035;29;20605;-82
2021/05/02 04:36:59;;;;;;;10.20;9.20;;;9.70;91.20;;;;;;4918300;29;20567;-82
2021/05/02 04:39:26;;;;;;;13.67;9.87;;;9.70;91.40;;;;;;4918392;29;20232;-82
2021/05/02 04:41:52;;;;;;;11.60;10.38;;;9.70;91.50;;;;;;4918683;29;20626;-82
2021/05/02 04:44:18;;;;;;;10.45;9.48;;;9.80;91.60;;;;;;4935308;29;20197;-82
2021/05/02 04:46:44;;;;;;;9.07;8.23;;;9.80;91.70;;;;;;4917871;29;20796;-82
2021/05/02 04:49:10;;;;;;;10.97;9.87;;;9.80;91.80;;;;;;4918391;29;20173;-82
2021/05/02 04:51:38;;;;;;;11.18;9.82;;;9.80;92.00;;;;;;4918197;29;20177;-82
2021/05/02 04:54:07;;;;;;;9.88;8.88;;;9.80;92.30;;;;;;4935054;29;20189;-82
2021/05/02 04:56:34;;;;;;;10.63;9.60;;;9.90;92.50;;;;;;4901940;29;20547;-82
2021/05/02 04:59:01;;;;;;;10.07;9.02;;;9.90;92.50;;;;;;4918219;29;20172;-82
2021/05/02 05:01:27;;;;;;;9.70;8.77;;;9.90;92.50;;;;;;4921799;29;20169;-82
2021/05/02 05:03:55;;;;;;;9.70;8.80;;;9.90;92.80;;;;;;4918002;29;20173;-82
2021/05/02 05:06:21;;;;;;;9.25;8.27;;;10.00;92.40;;;;;;4917783;29;20180;-82
2021/05/02 05:08:47;;;;;;;10.32;9.23;;;10.00;92.30;;;;;;4917723;29;20173;-82
2021/05/02 05:11:12;;;;;;;12.40;8.90;;;10.00;92.40;;;;;;4935289;29;20235;-81
2021/05/02 05:13:38;;;;;;;11.60;8.67;;;10.00;92.40;;;;;;4917674;29;20571;-81
2021/05/02 05:16:04;;;;;;;9.97;8.60;;;10.10;92.40;;;;;;4935416;29;20173;-81
2021/05/02 05:18:30;;;;;;;11.90;10.80;;;10.10;92.50;;;;;;4934849;29;20236;-81
2021/05/02 05:20:57;;;;;;;8.93;7.83;;;10.10;92.60;;;;;;4934678;29;20619;-81
2021/05/02 05:23:23;;;;;;;8.75;7.55;;;10.20;92.80;;;;;;4934556;29;20580;-81
2021/05/02 05:25:49;;;;;;;9.02;7.95;;;10.20;92.80;;;;;;4934660;29;20710;-82
2021/05/02 05:28:15;;;;;;;7.40;5.90;;;10.20;92.80;;;;;;4934177;29;20279;-82
2021/05/02 05:30:40;;;;;;;7.03;6.03;;;10.30;92.80;;;;;;4934459;29;20189;-82
2021/05/02 05:33:08;;;;;;;7.30;6.03;;;10.30;92.70;;;;;;4917439;29;20652;-82
2021/05/02 05:35:35;;;;;;;8.05;6.20;;;10.40;92.90;;;;;;4917619;29;20612;-82
2021/05/02 05:38:01;;;;;;;7.93;5.78;;;10.50;92.90;;;;;;4936406;29;20548;-82
2021/05/02 05:40:27;;;;;;;8.40;7.60;;;10.50;92.90;;;;;;4917717;29;20256;-81
2021/05/02 05:42:55;;;;;;;6.75;5.63;;;10.60;92.90;;;;;;4934530;29;20169;-81
2021/05/02 05:45:22;;;;;;;5.28;4.78;;;10.60;92.80;;;;;;4919819;29;20204;-81
2021/05/02 05:47:54;;;;;;;5.25;4.85;;;10.70;92.70;;;;;;4936698;29;20220;-82
2021/05/02 05:50:21;;;;;;;6.82;5.13;;;10.70;92.60;;;;;;4934621;29;20180;-81
2021/05/02 05:52:49;;;;;;;5.38;4.88;;;10.70;92.50;;;;;;4902064;29;20182;-81
2021/05/02 05:55:15;;;;;;;6.28;5.68;;;10.70;92.40;;;;;;4934666;29;20247;-81
2021/05/02 05:57:43;;;;;;;5.15;4.65;;;10.70;92.40;;;;;;4917797;29;20197;-81
2021/05/02 06:00:10;;;;;;;4.68;4.28;;;10.70;92.30;;;;;;4917534;29;20276;-81
2021/05/02 06:02:39;;;;;;;5.68;4.82;;;10.70;92.20;;;;;;4934710;29;20177;-81
2021/05/02 06:05:06;;;;;;;7.25;4.93;;;10.70;92.20;;;;;;4886082;29;20177;-81
2021/05/02 06:07:31;;;;;;;7.05;4.55;;;10.70;92.20;;;;;;4934433;29;20229;-81
2021/05/02 06:09:57;;;;;;;5.67;4.43;;;10.60;92.10;;;;;;4918810;29;20263;-82
2021/05/02 06:12:23;;;;;;;7.60;3.93;;;10.60;92.00;;;;;;4945783;29;20580;-81
2021/05/02 06:14:49;;;;;;;7.68;4.05;;;10.60;92.00;;;;;;4922995;29;20212;-81
2021/05/02 06:17:15;;;;;;;4.20;3.80;;;10.60;92.00;;;;;;4953407;29;20208;-81
2021/05/02 06:19:41;;;;;;;6.53;3.92;;;10.60;92.00;;;;;;4996321;23;20703;-81
2021/05/02 06:22:07;;;;;;;7.82;4.80;;;10.50;91.90;;;;;;5013175;28;20231;-80
2021/05/02 06:24:33;;;;;;;4.87;3.87;;;10.50;92.00;;;;;;5011031;28;20179;-80
2021/05/02 06:26:59;;;;;;;4.90;4.00;;;10.50;92.10;;;;;;4990164;28;20602;-80
2021/05/02 06:29:25;;;;;;;4.33;3.30;;;10.50;92.10;;;;;;4968007;28;20251;-80
2021/05/02 06:31:51;;;;;;;4.32;3.58;;;10.50;92.10;;;;;;4966656;28;20606;-79
2021/05/02 06:34:17;;;;;;;5.73;4.20;;;10.50;92.10;;;;;;4968243;28;20251;-80
2021/05/02 06:36:43;;;;;;;4.33;3.90;;;10.50;92.10;;;;;;4977487;28;20644;-80
2021/05/02 06:39:09;;;;;;;3.95;3.05;;;10.50;92.10;;;;;;4953434;28;20188;-79
2021/05/02 06:41:40;;;;;;;6.60;4.32;;;10.50;92.10;;;;;;4971146;28;20164;-80
2021/05/02 06:44:06;;;;;;;6.93;3.97;;;10.50;92.10;;;;;;4973560;28;20178;-79
2021/05/02 06:46:32;;;;;;;5.10;3.15;;;10.50;92.10;;;;;;4982864;28;20183;-80
2021/05/02 06:49:06;;;;;;;5.78;3.03;;;10.50;92.20;;;;;;5000176;28;20180;-80
2021/05/02 06:51:32;;;;;;;8.60;4.03;;;10.50;92.20;;;;;;4996398;28;20528;-80
2021/05/02 06:53:58;;;;;;;7.03;3.15;;;10.50;92.30;;;;;;4995894;28;20548;-81
2021/05/02 06:56:26;;;;;;;4.37;3.97;;;10.60;92.60;;;;;;4979720;28;20171;-80
2021/05/02 06:58:52;;;;;;;5.10;3.95;;;10.60;92.40;;;;;;4994186;28;20750;-82
2021/05/02 07:01:18;;;;;;;4.28;3.25;;;10.60;92.40;;;;;;4971265;28;20187;-82
2021/05/02 07:03:44;;;;;;;5.60;3.93;;;10.70;92.50;;;;;;4950644;28;20179;-82
2021/05/02 07:06:10;;;;;;;3.93;3.53;;;10.80;92.70;;;;;;4966827;28;20574;-80
2021/05/02 07:08:35;;;;;;;4.13;3.60;;;10.90;93.00;;;;;;4966934;28;20560;-78
2021/05/02 07:11:02;;;;;;;3.90;2.60;;;11.00;93.10;;;;;;4996436;28;20266;-80
2021/05/02 07:13:28;;;;;;;5.22;2.42;;;11.20;93.10;;;;;;4977199;28;20167;-77
2021/05/02 07:15:54;;;;;;;3.38;2.30;;;11.40;93.20;;;;;;4965782;28;20874;-78
2021/05/02 07:18:20;;;;;;;6.35;3.15;;;11.70;93.50;;;;;;4974896;28;20199;-80
2021/05/02 07:20:48;;;;;;;2.03;1.70;;;11.90;93.30;;;;;;4982000;28;20199;-79
2021/05/02 07:23:15;;;;;;;3.95;2.03;;;12.20;93.30;;;;;;4982238;28;20267;-80
2021/05/02 07:25:41;;;;;;;4.63;2.63;;;12.80;94.30;;;;;;4979816;28;20191;-79
2021/05/02 07:28:06;;;;;;;4.77;2.60;;;13.60;95.10;;;;;;4980691;28;20338;-80
2021/05/02 07:30:32;;;;;;;3.90;1.63;;;14.40;94.30;;;;;;4981628;28;20184;-82
2021/05/02 07:32:58;;;;;;;3.63;2.00;;;14.90;92.50;;;;;;4983949;28;20168;-80
2021/05/02 07:35:24;;;;;;;5.27;1.90;;;15.20;91.10;;;;;;4981302;28;20681;-81
2021/05/02 07:37:49;;;;;;;3.70;1.60;;;15.50;90.10;;;;;;4981096;28;20175;-81
2021/05/02 07:40:15;;;;;;;3.87;2.10;;;15.80;89.90;;;;;;4981076;28;20202;-81
2021/05/02 07:42:41;;;;;;;2.10;1.23;;;15.80;86.00;;;;;;4980776;28;20190;-81
2021/05/02 07:45:07;;;;;;;3.83;1.40;;;15.80;84.60;;;;;;4979319;28;20203;-80
2021/05/02 07:47:35;;;;;;;2.67;1.37;;;15.80;82.50;;;;;;4973564;28;20176;-80
2021/05/02 07:50:02;;;;;;;2.72;1.38;;;15.60;80.30;;;;;;4974952;28;20614;-80
2021/05/02 07:52:28;;;;;;;4.53;1.75;;;15.40;79.20;;;;;;4966650;28;20183;-80
2021/05/02 07:54:54;;;;;;;3.83;1.17;;;15.40;79.40;;;;;;4968717;28;20206;-81
2021/05/02 07:57:19;;;;;;;3.47;1.10;;;15.30;78.40;;;;;;4982744;28;20535;-82
2021/05/02 07:59:45;;;;;;;2.50;1.00;;;15.20;78.30;;;;;;4984434;28;20287;-80
2021/05/02 08:02:11;;;;;;;2.50;1.50;;;15.20;78.60;;;;;;4981843;28;20633;-80
2021/05/02 08:04:38;;;;;;;3.50;1.43;;;15.30;80.00;;;;;;4965341;28;20168;-80
2021/05/02 08:07:08;;;;;;;2.88;1.15;;;15.30;78.60;;;;;;4977352;28;20180;-82
2021/05/02 08:09:34;;;;;;;4.13;1.30;;;15.20;76.50;;;;;;4977495;28;20199;-81
2021/05/02 08:12:01;;;;;;;3.67;1.10;;;15.20;77.20;;;;;;4975582;28;20175;-81
2021/05/02 08:14:27;;;;;;;1.70;1.42;;;15.50;78.70;;;;;;4980149;28;20210;-80
2021/05/02 08:16:53;;;;;;;2.70;1.07;;;15.70;77.80;;;;;;4978904;28;20279;-80
2021/05/02 08:19:18;;;;;;;2.20;1.55;;;15.80;76.70;;;;;;4972355;28;20641;-79
2021/05/02 08:21:44;;;;;;;2.03;0.83;;;15.70;74.60;;;;;;4967475;28;20173;-80
2021/05/02 08:24:12;;;;;;;2.87;1.20;;;15.50;74.00;;;;;;4957941;28;20176;-81
2021/05/02 08:26:38;;;;;;;4.35;1.35;;;15.30;73.40;;;;;;4973972;28;20176;-81
2021/05/02 08:29:04;;;;;;;1.95;0.90;;;15.20;73.50;;;;;;4958492;28;20535;-80
2021/05/02 08:31:30;;;;;;;6.03;1.53;;;15.50;76.20;;;;;;4958282;28;20279;-80
2021/05/02 08:33:55;;;;;;;2.60;1.23;;;16.20;78.40;;;;;;4958537;29;20616;-81
2021/05/02 08:36:21;;;;;;;3.03;1.33;;;17.10;79.40;;;;;;4961541;29;20180;-80
2021/05/02 08:38:47;;;;;;;4.00;1.10;;;18.10;79.30;;;;;;4957795;28;20747;-80
2021/05/02 08:41:13;;;;;;;3.07;1.43;;;19.10;77.10;;;;;;4959574;29;20568;-81
2021/05/02 08:43:40;;;;;;;4.40;0.80;;;19.60;74.20;;;;;;4960912;29;20169;-81
2021/05/02 08:46:06;;;;;;;1.50;0.80;;;19.80;70.00;;;;;;4969639;28;20190;-80
2021/05/02 08:48:32;;;;;;;3.37;1.00;;;19.60;66.30;;;;;;4961408;28;21242;-80
2021/05/02 08:50:58;;;;;;;1.70;1.00;;;19.30;64.90;;;;;;4958506;29;20168;-81
2021/05/02 08:53:25;;;;;;;2.63;1.10;;;19.00;63.80;;;;;;4968172;28;21092;-80
2021/05/02 08:55:54;;;;;;;10.93;1.63;;;18.80;63.20;;;;;;4967944;28;20633;-77
2021/05/02 08:58:22;;;;;;;3.13;1.40;;;19.00;64.20;;;;;;4975577;28;20777;-78
2021/05/02 09:00:50;;;;;;;2.53;1.00;;;19.50;65.40;;;;;;4985842;28;20599;-78
2021/05/02 09:03:17;;;;;;;3.20;1.10;;;19.90;66.20;;;;;;4971163;28;20958;-79
2021/05/02 09:05:46;;;;;;;2.97;1.17;;;20.00;64.40;;;;;;4987005;28;20658;-79
2021/05/02 09:08:32;;;;;;;2.27;1.00;;;19.90;62.40;;;;;;4961611;28;20634;-78
2021/05/02 09:11:01;;;;;;;2.57;1.37;;;20.20;58.50;;;;;;4962662;28;20970;-78
2021/05/02 09:13:29;;;;;;;3.93;1.40;;;20.20;61.10;;;;;;4981942;28;20586;-76
2021/05/02 09:16:02;;;;;;;1.73;1.03;;;20.00;59.70;;;;;;4985587;28;20637;-78
2021/05/02 09:18:40;;;;;;;4.27;1.00;;;19.60;58.40;;;;;;4957998;28;20634;-80
2021/05/02 09:21:08;;;;;;;2.63;1.33;;;19.10;57.40;;;;;;4950397;28;21029;-78
2021/05/02 09:23:41;;;;;;;1.93;1.20;;;18.60;56.10;;;;;;4966723;28;20579;-80
2021/05/02 09:26:16;;;;;;;2.70;1.10;;;18.10;56.50;;;;;;4953817;29;20576;-79
2021/05/02 09:28:46;;;;;;;3.20;1.07;;;18.30;58.90;;;;;;4952916;28;20604;-79
2021/05/02 09:31:18;;;;;;;1.80;1.10;;;19.10;62.10;;;;;;4953649;29;20992;-81
2021/05/02 09:33:44;;;;;;;4.30;1.97;;;19.80;62.30;;;;;;4936443;29;21182;-82
2021/05/02 09:36:12;;;;;;;3.53;1.90;;;19.90;57.00;;;;;;4953447;29;20779;-81
2021/05/02 09:38:39;;;;;;;2.57;1.10;;;19.50;54.00;;;;;;4954061;28;20715;-82
2021/05/02 09:41:06;;;;;;;3.27;1.30;;;19.30;55.10;;;;;;4955030;29;20572;-82
2021/05/02 09:43:41;;;;;;;2.83;1.33;;;19.00;54.70;;;;;;4953616;29;20568;-82
2021/05/02 09:46:28;;;;;;;2.80;1.97;;;18.60;54.20;;;;;;4953381;29;20670;-83
2021/05/02 09:49:10;;;;;;;3.40;1.23;;;18.30;54.20;;;;;;4953628;28;20658;-80
2021/05/02 09:51:50;;;;;;;1.90;1.30;;;18.20;55.40;;;;;;4953677;29;20576;-80
2021/05/02 09:54:21;;;;;;;2.27;1.10;;;18.40;55.90;;;;;;4953472;29;21005;-80
2021/05/02 09:56:53;;;;;;;4.30;1.30;;;18.50;55.50;;;;;;4951876;29;20580;-80
2021/05/02 09:59:28;;;;;;;2.80;1.40;;;18.60;55.70;;;;;;4953670;28;20653;-82
2021/05/02 10:02:11;;;;;;;2.70;1.20;;;18.60;54.20;;;;;;4957251;29;21121;-80
2021/05/02 10:04:46;;;;;;;2.20;1.10;;;18.40;53.70;;;;;;4957252;29;20595;-80
2021/05/02 10:07:14;;;;;;;2.23;1.33;;;18.10;53.90;;;;;;4956978;29;20575;-80
2021/05/02 10:09:40;;;;;;;2.17;1.20;;;17.90;53.60;;;;;;4957021;28;20631;-80
2021/05/02 10:12:06;;;;;;;3.80;1.27;;;17.60;53.40;;;;;;4957179;29;20687;-80
2021/05/02 10:14:36;;;;;;;2.53;1.00;;;17.30;53.30;;;;;;4939901;29;20716;-80
2021/05/02 10:17:02;;;;;;;2.20;0.90;;;17.30;53.90;;;;;;4942358;29;20584;-80
2021/05/02 10:19:29;;;;;;;3.20;1.00;;;17.50;55.10;;;;;;4955670;28;20612;-80
2021/05/02 10:21:55;;;;;;;2.67;1.20;;;18.10;55.60;;;;;;4956996;29;20580;-80
2021/05/02 10:24:22;;;;;;;1.73;1.03;;;18.60;55.70;;;;;;4955642;29;20588;-80
2021/05/02 10:26:53;;;;;;;2.17;0.87;;;18.90;55.60;;;;;;4939371;29;20670;-80
2021/05/02 10:29:30;;;;;;;2.20;0.90;;;19.00;55.00;;;;;;4939995;29;20611;-80
2021/05/02 10:32:06;;;;;;;3.10;1.30;;;19.00;54.10;;;;;;4956900;29;21334;-79
2021/05/02 10:34:36;;;;;;;2.17;0.90;;;18.80;52.60;;;;;;4956604;29;20959;-79
2021/05/02 10:37:32;;;;;;;1.80;1.20;;;18.60;52.40;;;;;;4981716;28;20738;-81
2021/05/02 10:40:18;;;;;;;2.83;1.20;;;17.90;50.30;;;;;;4967709;28;20214;-80
2021/05/02 10:42:51;;;;;;;2.07;1.00;;;17.80;51.20;;;;;;4984724;28;21016;-79
2021/05/02 10:45:33;;;;;;;2.40;0.90;;;18.00;52.80;;;;;;4995379;28;20586;-78
2021/05/02 10:48:01;;;;;;;1.30;0.77;;;18.50;53.90;;;;;;4993317;28;20582;-79
2021/05/02 10:50:45;;;;;;;7.03;1.00;;;18.90;53.70;;;;;;4966291;28;20571;-80
2021/05/02 10:53:14;;;;;;;2.00;1.10;;;19.10;52.00;;;;;;4999400;28;20712;-80
2021/05/02 10:55:46;;;;;;;1.40;0.90;;;19.10;50.20;;;;;;4995979;28;20634;-80
2021/05/02 10:58:27;;;;;;;2.40;1.20;;;19.00;49.90;;;;;;4994463;28;20610;-80
2021/05/02 11:00:59;;;;;;;2.20;1.10;;;18.70;49.20;;;;;;4994148;28;20732;-80
2021/05/02 11:03:40;;;;;;;2.37;1.23;;;18.00;47.30;;;;;;4961829;28;20656;-79
2021/05/02 11:06:11;;;;;;;10.67;1.30;;;17.90;48.30;;;;;;4994740;28;20558;-80
2021/05/02 11:08:48;;;;;;;2.87;1.37;;;17.70;48.80;;;;;;4977093;28;20745;-80
2021/05/02 11:11:46;;;;;;;2.30;1.07;;;17.60;48.80;;;;;;4993762;28;21147;-80
2021/05/02 11:14:14;;;;;;;2.73;1.20;;;17.40;49.60;;;;;;4966062;28;20744;-80
2021/05/02 11:16:58;;;;;;;1.57;1.13;;;17.30;49.50;;;;;;4994297;28;20998;-79
2021/05/02 11:19:52;;;;;;;2.10;1.37;;;17.10;49.50;;;;;;4994453;28;21039;-80
2021/05/02 11:22:19;;;;;;;1.67;1.27;;;16.90;49.60;;;;;;4992426;28;20602;-79
2021/05/02 11:24:47;;;;;;;3.30;2.27;;;16.70;49.90;;;;;;4971265;28;20595;-80
2021/05/02 11:32:28;;;;;;;3.53;1.30;;;16.60;50.90;;;;;;4994880;28;20630;-78
2021/05/02 11:34:56;;;;;;;2.00;0.90;;;16.60;50.50;;;;;;4986312;28;20637;-80
2021/05/02 11:37:42;;;;;;;3.70;1.53;;;16.60;50.50;;;;;;4963489;28;20628;-79
2021/05/02 11:40:30;;;;;;;3.80;1.60;;;16.50;50.50;;;;;;4984660;28;20613;-78
2021/05/02 11:43:00;;;;;;;5.03;1.30;;;16.40;50.60;;;;;;4987793;28;20593;-79
2021/05/02 11:45:47;;;;;;;1.40;0.90;;;16.40;50.50;;;;;;4967882;28;20622;-79
2021/05/02 11:48:36;;;;;;;5.47;1.10;;;16.30;50.60;;;;;;4978698;28;20699;-78
2021/05/02 11:51:23;;;;;;;2.73;1.30;;;16.30;51.00;;;;;;4983944;28;20598;-79
2021/05/02 11:53:56;;;;;;;2.07;1.00;;;16.40;51.10;;;;;;4988913;28;20582;-80
2021/05/02 11:56:25;;;;;;;5.03;2.20;;;16.60;51.20;;;;;;4975867;28;20702;-78
2021/05/02 11:58:54;;;;;;;3.73;1.50;;;16.60;50.20;;;;;;4965620;28;21416;-79
2021/05/02 12:01:25;;;;;;;2.73;0.90;;;16.60;50.40;;;;;;4988431;28;20586;-80
2021/05/02 12:03:52;;;;;;;2.30;1.17;;;16.60;50.20;;;;;;4982733;28;20586;-79
2021/05/02 12:06:30;;;;;;;3.10;1.50;;;16.70;50.30;;;;;;4960357;28;21199;-79
2021/05/02 12:08:57;;;;;;;2.30;1.40;;;16.70;50.20;;;;;;4981729;28;21071;-79
2021/05/02 12:11:24;;;;;;;1.90;1.03;;;16.60;50.00;;;;;;4976853;28;20579;-80
2021/05/02 12:13:52;;;;;;;2.70;1.20;;;16.50;50.00;;;;;;4993806;28;20631;-79
2021/05/02 12:16:19;;;;;;;3.57;2.30;;;16.50;50.80;;;;;;4976276;28;20585;-78
2021/05/02 12:18:55;;;;;;;4.57;1.70;;;16.50;50.30;;;;;;4993983;28;20648;-80
2021/05/02 12:21:34;;;;;;;3.10;1.37;;;16.50;50.40;;;;;;4979604;28;20589;-79
2021/05/02 12:24:05;;;;;;;2.87;1.23;;;16.60;50.80;;;;;;4981097;28;20574;-79
2021/05/02 12:26:35;;;;;;;1.50;1.10;;;16.70;51.10;;;;;;4980875;28;20701;-79
2021/05/02 12:29:19;;;;;;;2.27;1.00;;;16.80;51.30;;;;;;4998058;28;20734;-80
2021/05/02 12:31:54;;;;;;;1.90;0.90;;;17.00;50.90;;;;;;4963938;28;21157;-79
2021/05/02 12:34:26;;;;;;;2.77;1.10;;;17.10;50.90;;;;;;4961793;28;21173;-79
2021/05/02 12:36:56;;;;;;;2.53;0.90;;;17.20;50.80;;;;;;4992551;28;20574;-78
2021/05/02 12:39:31;;;;;;;3.07;1.00;;;17.30;50.50;;;;;;4944965;28;20602;-80
2021/05/02 12:41:57;;;;;;;1.60;1.00;;;17.30;50.00;;;;;;4977123;28;20652;-79
2021/05/02 12:44:25;;;;;;;2.30;0.80;;;17.40;50.20;;;;;;4963647;28;20610;-79
2021/05/02 12:46:55;;;;;;;2.90;1.00;;;17.40;50.00;;;;;;4995623;28;21018;-79
2021/05/02 12:49:26;;;;;;;2.23;0.80;;;17.40;49.40;;;;;;4977202;28;20617;-79
2021/05/02 12:52:02;;;;;;;3.53;1.20;;;17.30;49.30;;;;;;4994285;28;20570;-80
2021/05/02 12:54:36;;;;;;;5.20;3.07;;;17.30;49.00;;;;;;4976833;28;20622;-79
2021/05/02 12:57:08;;;;;;;6.13;3.80;;;17.20;48.90;;;;;;4976951;28;20584;-79
2021/05/02 12:59:43;;;;;;;4.50;2.50;;;17.10;48.90;;;;;;4995027;28;20586;-80
2021/05/02 13:02:24;;;;;;;1.93;1.20;;;17.10;49.00;;;;;;4976867;28;20705;-79
2021/05/02 13:04:57;;;;;;;1.50;1.13;;;17.00;48.50;;;;;;4993959;28;20657;-79